sensor_id;sensor_type;location;lat;lon;timestamp;P1;durP1;ratioP1;P2;durP2;ratioP2
46731;SDS011;32477;51.474;5.696;2024-02-21T00:00:55;22.08;;;6.25;;
46731;SDS011;32477;51.474;5.696;2024-02-21T00:03:21;16.65;;;7.10;;
46731;SDS011;32477;51.474;5.696;2024-02-21T00:05:47;24.20;;;8.10;;
46731;SDS011;32477;51.474;5.696;2024-02-21T00:08:12;29.40;;;8.98;;
46731;SDS011;32477;51.474;5.696;2024-02-21T00:10:38;18.63;;;7.40;;
46731;SDS011;32477;51.474;5.696;2024-02-21T00:13:04;26.60;;;7.28;;
46731;SDS011;32477;51.474;5.696;2024-02-21T00:15:29;28.38;;;7.45;;
46731;SDS011;32477;51.474;5.696;2024-02-21T00:17:55;27.77;;;7.38;;
46731;SDS011;32477;51.474;5.696;2024-02-21T00:20:21;28.30;;;6.97;;
46731;SDS011;32477;51.474;5.696;2024-02-21T00:22:46;28.25;;;8.13;;
46731;SDS011;32477;51.474;5.696;2024-02-21T00:25:12;17.30;;;6.80;;
46731;SDS011;32477;51.474;5.696;2024-02-21T00:27:38;28.83;;;7.15;;
46731;SDS011;32477;51.474;5.696;2024-02-21T00:30:06;23.35;;;7.25;;
46731;SDS011;32477;51.474;5.696;2024-02-21T00:32:32;23.98;;;7.28;;
46731;SDS011;32477;51.474;5.696;2024-02-21T00:34:59;24.00;;;7.35;;
46731;SDS011;32477;51.474;5.696;2024-02-21T00:37:26;21.73;;;7.65;;
46731;SDS011;32477;51.474;5.696;2024-02-21T00:39:52;26.98;;;7.20;;
46731;SDS011;32477;51.474;5.696;2024-02-21T00:42:21;26.08;;;6.85;;
46731;SDS011;32477;51.474;5.696;2024-02-21T00:44:47;23.50;;;6.80;;
46731;SDS011;32477;51.474;5.696;2024-02-21T00:47:12;20.65;;;6.65;;
46731;SDS011;32477;51.474;5.696;2024-02-21T00:49:38;14.50;;;6.10;;
46731;SDS011;32477;51.474;5.696;2024-02-21T00:52:04;14.75;;;5.97;;
46731;SDS011;32477;51.474;5.696;2024-02-21T00:54:29;21.73;;;6.35;;
46731;SDS011;32477;51.474;5.696;2024-02-21T00:56:55;15.23;;;6.15;;
46731;SDS011;32477;51.474;5.696;2024-02-21T00:59:20;20.50;;;6.75;;
46731;SDS011;32477;51.474;5.696;2024-02-21T01:01:46;15.40;;;6.45;;
46731;SDS011;32477;51.474;5.696;2024-02-21T01:04:11;22.42;;;6.85;;
46731;SDS011;32477;51.474;5.696;2024-02-21T01:06:37;30.20;;;6.75;;
46731;SDS011;32477;51.474;5.696;2024-02-21T01:09:03;26.60;;;7.28;;
46731;SDS011;32477;51.474;5.696;2024-02-21T01:11:29;24.13;;;6.30;;
46731;SDS011;32477;51.474;5.696;2024-02-21T01:13:55;17.63;;;6.28;;
46731;SDS011;32477;51.474;5.696;2024-02-21T01:16:20;21.15;;;6.88;;
46731;SDS011;32477;51.474;5.696;2024-02-21T01:18:46;21.10;;;6.80;;
46731;SDS011;32477;51.474;5.696;2024-02-21T01:21:12;19.30;;;6.72;;
46731;SDS011;32477;51.474;5.696;2024-02-21T01:23:37;28.23;;;6.40;;
46731;SDS011;32477;51.474;5.696;2024-02-21T01:26:03;26.65;;;6.75;;
46731;SDS011;32477;51.474;5.696;2024-02-21T01:28:30;19.35;;;6.43;;
46731;SDS011;32477;51.474;5.696;2024-02-21T01:30:55;14.25;;;6.35;;
46731;SDS011;32477;51.474;5.696;2024-02-21T01:33:22;27.23;;;7.20;;
46731;SDS011;32477;51.474;5.696;2024-02-21T01:35:47;16.25;;;5.63;;
46731;SDS011;32477;51.474;5.696;2024-02-21T01:38:14;22.40;;;6.47;;
46731;SDS011;32477;51.474;5.696;2024-02-21T01:40:39;19.40;;;6.15;;
46731;SDS011;32477;51.474;5.696;2024-02-21T01:43:14;30.08;;;6.68;;
46731;SDS011;32477;51.474;5.696;2024-02-21T01:45:45;17.00;;;5.57;;
46731;SDS011;32477;51.474;5.696;2024-02-21T01:48:13;12.30;;;5.80;;
46731;SDS011;32477;51.474;5.696;2024-02-21T01:50:39;22.65;;;5.80;;
46731;SDS011;32477;51.474;5.696;2024-02-21T01:53:05;24.88;;;6.25;;
46731;SDS011;32477;51.474;5.696;2024-02-21T01:55:31;22.10;;;6.55;;
46731;SDS011;32477;51.474;5.696;2024-02-21T01:57:56;22.63;;;6.55;;
46731;SDS011;32477;51.474;5.696;2024-02-21T02:00:22;27.73;;;5.68;;
46731;SDS011;32477;51.474;5.696;2024-02-21T02:02:49;16.27;;;5.43;;
46731;SDS011;32477;51.474;5.696;2024-02-21T02:05:15;25.60;;;6.13;;
46731;SDS011;32477;51.474;5.696;2024-02-21T02:07:43;24.17;;;5.72;;
46731;SDS011;32477;51.474;5.696;2024-02-21T02:10:09;20.73;;;6.97;;
46731;SDS011;32477;51.474;5.696;2024-02-21T02:12:35;18.67;;;6.03;;
46731;SDS011;32477;51.474;5.696;2024-02-21T02:15:01;17.83;;;5.32;;
46731;SDS011;32477;51.474;5.696;2024-02-21T02:17:31;19.92;;;5.95;;
46731;SDS011;32477;51.474;5.696;2024-02-21T02:19:56;19.38;;;6.07;;
46731;SDS011;32477;51.474;5.696;2024-02-21T02:22:22;24.55;;;6.82;;
46731;SDS011;32477;51.474;5.696;2024-02-21T02:24:57;16.40;;;5.47;;
46731;SDS011;32477;51.474;5.696;2024-02-21T02:27:23;15.77;;;5.28;;
46731;SDS011;32477;51.474;5.696;2024-02-21T02:29:49;15.15;;;5.30;;
46731;SDS011;32477;51.474;5.696;2024-02-21T02:32:16;16.55;;;5.40;;
46731;SDS011;32477;51.474;5.696;2024-02-21T02:34:41;14.80;;;4.57;;
46731;SDS011;32477;51.474;5.696;2024-02-21T02:37:07;17.05;;;5.22;;
46731;SDS011;32477;51.474;5.696;2024-02-21T02:39:32;11.27;;;4.60;;
46731;SDS011;32477;51.474;5.696;2024-02-21T02:41:58;15.48;;;5.25;;
46731;SDS011;32477;51.474;5.696;2024-02-21T02:44:24;14.25;;;5.28;;
46731;SDS011;32477;51.474;5.696;2024-02-21T02:46:49;12.48;;;4.60;;
46731;SDS011;32477;51.474;5.696;2024-02-21T02:49:15;17.27;;;5.18;;
46731;SDS011;32477;51.474;5.696;2024-02-21T02:51:41;22.10;;;6.30;;
46731;SDS011;32477;51.474;5.696;2024-02-21T02:54:08;20.52;;;4.97;;
46731;SDS011;32477;51.474;5.696;2024-02-21T02:56:33;18.40;;;4.75;;
46731;SDS011;32477;51.474;5.696;2024-02-21T02:58:59;12.20;;;5.93;;
46731;SDS011;32477;51.474;5.696;2024-02-21T03:01:25;16.50;;;5.20;;
46731;SDS011;32477;51.474;5.696;2024-02-21T03:03:50;17.73;;;5.35;;
46731;SDS011;32477;51.474;5.696;2024-02-21T03:06:16;14.07;;;5.30;;
46731;SDS011;32477;51.474;5.696;2024-02-21T03:08:41;18.55;;;5.38;;
46731;SDS011;32477;51.474;5.696;2024-02-21T03:11:07;17.17;;;5.43;;
46731;SDS011;32477;51.474;5.696;2024-02-21T03:13:33;21.35;;;5.60;;
46731;SDS011;32477;51.474;5.696;2024-02-21T03:15:59;12.95;;;5.03;;
46731;SDS011;32477;51.474;5.696;2024-02-21T03:18:24;16.98;;;4.63;;
46731;SDS011;32477;51.474;5.696;2024-02-21T03:20:50;13.98;;;5.32;;
46731;SDS011;32477;51.474;5.696;2024-02-21T03:23:16;8.68;;;4.22;;
46731;SDS011;32477;51.474;5.696;2024-02-21T03:25:41;18.25;;;5.28;;
46731;SDS011;32477;51.474;5.696;2024-02-21T03:28:07;14.05;;;4.95;;
46731;SDS011;32477;51.474;5.696;2024-02-21T03:30:32;12.95;;;4.72;;
46731;SDS011;32477;51.474;5.696;2024-02-21T03:32:58;13.20;;;5.00;;
46731;SDS011;32477;51.474;5.696;2024-02-21T03:35:24;12.80;;;4.78;;
46731;SDS011;32477;51.474;5.696;2024-02-21T03:37:52;16.42;;;5.55;;
46731;SDS011;32477;51.474;5.696;2024-02-21T03:40:18;21.77;;;5.80;;
46731;SDS011;32477;51.474;5.696;2024-02-21T03:42:43;19.58;;;6.05;;
46731;SDS011;32477;51.474;5.696;2024-02-21T03:45:09;27.15;;;6.07;;
46731;SDS011;32477;51.474;5.696;2024-02-21T03:47:34;14.38;;;6.38;;
46731;SDS011;32477;51.474;5.696;2024-02-21T03:50:00;18.10;;;6.18;;
46731;SDS011;32477;51.474;5.696;2024-02-21T03:52:26;16.75;;;6.68;;
46731;SDS011;32477;51.474;5.696;2024-02-21T03:54:51;17.23;;;6.45;;
46731;SDS011;32477;51.474;5.696;2024-02-21T03:57:19;28.10;;;6.95;;
46731;SDS011;32477;51.474;5.696;2024-02-21T03:59:45;25.33;;;7.35;;
46731;SDS011;32477;51.474;5.696;2024-02-21T04:02:11;20.17;;;6.88;;
46731;SDS011;32477;51.474;5.696;2024-02-21T04:04:37;22.42;;;6.53;;
46731;SDS011;32477;51.474;5.696;2024-02-21T04:07:03;17.85;;;7.05;;
46731;SDS011;32477;51.474;5.696;2024-02-21T04:09:35;21.35;;;7.47;;
46731;SDS011;32477;51.474;5.696;2024-02-21T04:12:00;20.20;;;7.18;;
46731;SDS011;32477;51.474;5.696;2024-02-21T04:14:26;21.30;;;8.00;;
46731;SDS011;32477;51.474;5.696;2024-02-21T04:16:52;24.00;;;7.25;;
46731;SDS011;32477;51.474;5.696;2024-02-21T04:19:17;14.95;;;6.97;;
46731;SDS011;32477;51.474;5.696;2024-02-21T04:21:43;21.25;;;7.70;;
46731;SDS011;32477;51.474;5.696;2024-02-21T04:24:09;14.80;;;7.25;;
46731;SDS011;32477;51.474;5.696;2024-02-21T04:26:35;22.92;;;7.47;;
46731;SDS011;32477;51.474;5.696;2024-02-21T04:29:00;18.48;;;6.47;;
46731;SDS011;32477;51.474;5.696;2024-02-21T04:31:26;22.35;;;7.68;;
46731;SDS011;32477;51.474;5.696;2024-02-21T04:33:52;20.17;;;7.28;;
46731;SDS011;32477;51.474;5.696;2024-02-21T04:36:17;16.15;;;6.03;;
46731;SDS011;32477;51.474;5.696;2024-02-21T04:38:43;20.48;;;7.35;;
46731;SDS011;32477;51.474;5.696;2024-02-21T04:41:08;15.95;;;6.40;;
46731;SDS011;32477;51.474;5.696;2024-02-21T04:43:34;20.05;;;7.88;;
46731;SDS011;32477;51.474;5.696;2024-02-21T04:46:00;15.38;;;7.35;;
46731;SDS011;32477;51.474;5.696;2024-02-21T04:48:26;18.73;;;8.18;;
46731;SDS011;32477;51.474;5.696;2024-02-21T04:50:51;18.00;;;7.60;;
46731;SDS011;32477;51.474;5.696;2024-02-21T04:53:17;17.08;;;7.18;;
46731;SDS011;32477;51.474;5.696;2024-02-21T04:55:43;25.90;;;7.80;;
46731;SDS011;32477;51.474;5.696;2024-02-21T04:58:09;17.38;;;7.50;;
46731;SDS011;32477;51.474;5.696;2024-02-21T05:00:35;19.30;;;7.22;;
46731;SDS011;32477;51.474;5.696;2024-02-21T05:03:00;25.25;;;6.88;;
46731;SDS011;32477;51.474;5.696;2024-02-21T05:05:26;18.83;;;7.97;;
46731;SDS011;32477;51.474;5.696;2024-02-21T05:07:51;19.85;;;7.53;;
46731;SDS011;32477;51.474;5.696;2024-02-21T05:10:17;19.48;;;7.85;;
46731;SDS011;32477;51.474;5.696;2024-02-21T05:12:44;25.20;;;7.88;;
46731;SDS011;32477;51.474;5.696;2024-02-21T05:15:10;23.55;;;7.75;;
46731;SDS011;32477;51.474;5.696;2024-02-21T05:17:35;24.17;;;7.80;;
46731;SDS011;32477;51.474;5.696;2024-02-21T05:20:01;19.65;;;7.50;;
46731;SDS011;32477;51.474;5.696;2024-02-21T05:22:27;22.10;;;7.90;;
46731;SDS011;32477;51.474;5.696;2024-02-21T05:24:52;18.60;;;7.85;;
46731;SDS011;32477;51.474;5.696;2024-02-21T05:27:18;22.23;;;8.10;;
46731;SDS011;32477;51.474;5.696;2024-02-21T05:29:43;16.52;;;7.00;;
46731;SDS011;32477;51.474;5.696;2024-02-21T05:32:09;21.00;;;8.57;;
46731;SDS011;32477;51.474;5.696;2024-02-21T05:34:35;17.63;;;7.78;;
46731;SDS011;32477;51.474;5.696;2024-02-21T05:37:01;15.88;;;7.50;;
46731;SDS011;32477;51.474;5.696;2024-02-21T05:39:26;26.83;;;7.88;;
46731;SDS011;32477;51.474;5.696;2024-02-21T05:41:54;18.10;;;7.20;;
46731;SDS011;32477;51.474;5.696;2024-02-21T05:44:20;35.75;;;8.30;;
46731;SDS011;32477;51.474;5.696;2024-02-21T05:46:47;18.92;;;7.93;;
46731;SDS011;32477;51.474;5.696;2024-02-21T05:49:12;22.38;;;7.22;;
46731;SDS011;32477;51.474;5.696;2024-02-21T05:51:38;20.40;;;6.75;;
46731;SDS011;32477;51.474;5.696;2024-02-21T05:54:04;27.83;;;7.93;;
46731;SDS011;32477;51.474;5.696;2024-02-21T05:56:29;17.05;;;6.85;;
46731;SDS011;32477;51.474;5.696;2024-02-21T05:58:55;18.50;;;7.50;;
46731;SDS011;32477;51.474;5.696;2024-02-21T06:01:21;19.33;;;6.45;;
46731;SDS011;32477;51.474;5.696;2024-02-21T06:03:47;19.55;;;7.30;;
46731;SDS011;32477;51.474;5.696;2024-02-21T06:06:12;18.27;;;6.95;;
46731;SDS011;32477;51.474;5.696;2024-02-21T06:08:39;25.42;;;8.35;;
46731;SDS011;32477;51.474;5.696;2024-02-21T06:11:05;23.70;;;7.65;;
46731;SDS011;32477;51.474;5.696;2024-02-21T06:13:31;19.10;;;6.95;;
46731;SDS011;32477;51.474;5.696;2024-02-21T06:15:56;14.93;;;5.90;;
46731;SDS011;32477;51.474;5.696;2024-02-21T06:18:22;13.73;;;6.35;;
46731;SDS011;32477;51.474;5.696;2024-02-21T06:20:48;15.60;;;7.15;;
46731;SDS011;32477;51.474;5.696;2024-02-21T06:23:15;24.45;;;7.15;;
46731;SDS011;32477;51.474;5.696;2024-02-21T06:25:42;18.10;;;6.60;;
46731;SDS011;32477;51.474;5.696;2024-02-21T06:28:07;22.83;;;6.55;;
46731;SDS011;32477;51.474;5.696;2024-02-21T06:30:33;19.70;;;7.47;;
46731;SDS011;32477;51.474;5.696;2024-02-21T06:33:00;16.40;;;6.22;;
46731;SDS011;32477;51.474;5.696;2024-02-21T06:35:27;14.40;;;6.03;;
46731;SDS011;32477;51.474;5.696;2024-02-21T06:37:53;18.00;;;6.57;;
46731;SDS011;32477;51.474;5.696;2024-02-21T06:40:22;16.05;;;6.50;;
46731;SDS011;32477;51.474;5.696;2024-02-21T06:42:48;20.52;;;7.32;;
46731;SDS011;32477;51.474;5.696;2024-02-21T06:45:15;23.92;;;7.25;;
46731;SDS011;32477;51.474;5.696;2024-02-21T06:47:40;19.65;;;8.35;;
46731;SDS011;32477;51.474;5.696;2024-02-21T06:50:06;24.75;;;7.53;;
46731;SDS011;32477;51.474;5.696;2024-02-21T06:52:33;19.70;;;7.80;;
46731;SDS011;32477;51.474;5.696;2024-02-21T06:54:59;21.33;;;7.47;;
46731;SDS011;32477;51.474;5.696;2024-02-21T06:57:25;18.20;;;7.97;;
46731;SDS011;32477;51.474;5.696;2024-02-21T06:59:50;26.35;;;8.23;;
46731;SDS011;32477;51.474;5.696;2024-02-21T07:02:16;15.43;;;8.13;;
46731;SDS011;32477;51.474;5.696;2024-02-21T07:04:42;32.47;;;9.02;;
46731;SDS011;32477;51.474;5.696;2024-02-21T07:07:08;23.52;;;8.77;;
46731;SDS011;32477;51.474;5.696;2024-02-21T07:09:34;21.08;;;8.07;;
46731;SDS011;32477;51.474;5.696;2024-02-21T07:12:00;23.52;;;7.88;;
46731;SDS011;32477;51.474;5.696;2024-02-21T07:14:27;22.10;;;8.25;;
46731;SDS011;32477;51.474;5.696;2024-02-21T07:16:53;24.55;;;8.48;;
46731;SDS011;32477;51.474;5.696;2024-02-21T07:19:19;24.02;;;9.15;;
46731;SDS011;32477;51.474;5.696;2024-02-21T07:21:45;22.85;;;8.90;;
46731;SDS011;32477;51.474;5.696;2024-02-21T07:24:10;20.83;;;7.78;;
46731;SDS011;32477;51.474;5.696;2024-02-21T07:26:37;18.42;;;6.88;;
46731;SDS011;32477;51.474;5.696;2024-02-21T07:29:05;18.10;;;8.00;;
46731;SDS011;32477;51.474;5.696;2024-02-21T07:31:31;30.23;;;8.30;;
46731;SDS011;32477;51.474;5.696;2024-02-21T07:34:03;17.35;;;7.55;;
46731;SDS011;32477;51.474;5.696;2024-02-21T07:36:29;14.05;;;7.55;;
46731;SDS011;32477;51.474;5.696;2024-02-21T07:38:55;19.83;;;7.95;;
46731;SDS011;32477;51.474;5.696;2024-02-21T07:41:21;17.73;;;7.70;;
46731;SDS011;32477;51.474;5.696;2024-02-21T07:43:46;17.05;;;7.35;;
46731;SDS011;32477;51.474;5.696;2024-02-21T07:46:13;22.48;;;7.43;;
46731;SDS011;32477;51.474;5.696;2024-02-21T07:48:39;16.73;;;7.45;;
46731;SDS011;32477;51.474;5.696;2024-02-21T07:51:05;14.70;;;6.03;;
46731;SDS011;32477;51.474;5.696;2024-02-21T07:53:30;16.10;;;7.32;;
46731;SDS011;32477;51.474;5.696;2024-02-21T07:55:56;18.52;;;6.75;;
46731;SDS011;32477;51.474;5.696;2024-02-21T07:58:21;15.85;;;5.78;;
46731;SDS011;32477;51.474;5.696;2024-02-21T08:00:47;16.48;;;6.47;;
46731;SDS011;32477;51.474;5.696;2024-02-21T08:03:13;16.17;;;6.95;;
46731;SDS011;32477;51.474;5.696;2024-02-21T08:05:40;12.20;;;5.63;;
46731;SDS011;32477;51.474;5.696;2024-02-21T08:08:06;16.98;;;5.88;;
46731;SDS011;32477;51.474;5.696;2024-02-21T08:10:33;21.17;;;6.43;;
46731;SDS011;32477;51.474;5.696;2024-02-21T08:12:59;15.45;;;5.50;;
46731;SDS011;32477;51.474;5.696;2024-02-21T08:15:24;14.38;;;6.45;;
46731;SDS011;32477;51.474;5.696;2024-02-21T08:17:54;18.92;;;5.72;;
46731;SDS011;32477;51.474;5.696;2024-02-21T08:20:24;15.57;;;6.28;;
46731;SDS011;32477;51.474;5.696;2024-02-21T08:22:49;13.02;;;5.28;;
46731;SDS011;32477;51.474;5.696;2024-02-21T08:25:15;14.60;;;4.85;;
46731;SDS011;32477;51.474;5.696;2024-02-21T08:27:40;16.42;;;5.70;;
46731;SDS011;32477;51.474;5.696;2024-02-21T08:30:06;12.60;;;5.95;;
46731;SDS011;32477;51.474;5.696;2024-02-21T08:32:33;11.48;;;5.30;;
46731;SDS011;32477;51.474;5.696;2024-02-21T08:35:00;16.38;;;6.50;;
46731;SDS011;32477;51.474;5.696;2024-02-21T08:37:27;10.80;;;5.45;;
46731;SDS011;32477;51.474;5.696;2024-02-21T08:39:52;12.63;;;5.07;;
46731;SDS011;32477;51.474;5.696;2024-02-21T08:42:18;11.23;;;6.13;;
46731;SDS011;32477;51.474;5.696;2024-02-21T08:44:44;14.07;;;5.55;;
46731;SDS011;32477;51.474;5.696;2024-02-21T08:47:09;10.00;;;5.55;;
46731;SDS011;32477;51.474;5.696;2024-02-21T08:49:35;18.20;;;6.22;;
46731;SDS011;32477;51.474;5.696;2024-02-21T08:52:02;13.85;;;4.88;;
46731;SDS011;32477;51.474;5.696;2024-02-21T08:54:28;13.13;;;5.35;;
46731;SDS011;32477;51.474;5.696;2024-02-21T08:56:54;13.18;;;4.65;;
46731;SDS011;32477;51.474;5.696;2024-02-21T08:59:20;10.57;;;5.68;;
46731;SDS011;32477;51.474;5.696;2024-02-21T09:01:45;9.50;;;4.57;;
46731;SDS011;32477;51.474;5.696;2024-02-21T09:04:12;13.77;;;4.25;;
46731;SDS011;32477;51.474;5.696;2024-02-21T09:06:37;10.77;;;5.00;;
46731;SDS011;32477;51.474;5.696;2024-02-21T09:09:07;12.35;;;4.88;;
46731;SDS011;32477;51.474;5.696;2024-02-21T09:11:33;13.20;;;5.07;;
46731;SDS011;32477;51.474;5.696;2024-02-21T09:13:59;13.40;;;5.22;;
46731;SDS011;32477;51.474;5.696;2024-02-21T09:16:25;13.15;;;5.45;;
46731;SDS011;32477;51.474;5.696;2024-02-21T09:18:50;13.90;;;5.70;;
46731;SDS011;32477;51.474;5.696;2024-02-21T09:21:17;15.60;;;5.55;;
46731;SDS011;32477;51.474;5.696;2024-02-21T09:23:43;14.60;;;7.13;;
46731;SDS011;32477;51.474;5.696;2024-02-21T09:26:10;12.27;;;5.82;;
46731;SDS011;32477;51.474;5.696;2024-02-21T09:28:39;15.02;;;5.53;;
46731;SDS011;32477;51.474;5.696;2024-02-21T09:31:04;21.90;;;6.63;;
46731;SDS011;32477;51.474;5.696;2024-02-21T09:33:30;12.75;;;6.07;;
46731;SDS011;32477;51.474;5.696;2024-02-21T09:35:56;17.38;;;7.35;;
46731;SDS011;32477;51.474;5.696;2024-02-21T09:38:21;15.23;;;6.70;;
46731;SDS011;32477;51.474;5.696;2024-02-21T09:40:47;12.10;;;6.10;;
46731;SDS011;32477;51.474;5.696;2024-02-21T09:43:17;13.15;;;5.38;;
46731;SDS011;32477;51.474;5.696;2024-02-21T09:45:43;16.63;;;6.75;;
46731;SDS011;32477;51.474;5.696;2024-02-21T09:48:19;16.20;;;6.30;;
46731;SDS011;32477;51.474;5.696;2024-02-21T09:50:55;14.27;;;5.90;;
46731;SDS011;32477;51.474;5.696;2024-02-21T09:53:22;12.15;;;5.90;;
46731;SDS011;32477;51.474;5.696;2024-02-21T09:55:50;13.02;;;5.70;;
46731;SDS011;32477;51.474;5.696;2024-02-21T09:58:17;13.68;;;6.72;;
46731;SDS011;32477;51.474;5.696;2024-02-21T10:00:43;17.13;;;6.00;;
46731;SDS011;32477;51.474;5.696;2024-02-21T10:03:09;13.98;;;6.03;;
46731;SDS011;32477;51.474;5.696;2024-02-21T10:05:35;11.45;;;5.75;;
46731;SDS011;32477;51.474;5.696;2024-02-21T10:08:01;10.65;;;4.70;;
46731;SDS011;32477;51.474;5.696;2024-02-21T10:10:27;16.67;;;5.45;;
46731;SDS011;32477;51.474;5.696;2024-02-21T10:12:54;15.23;;;4.93;;
46731;SDS011;32477;51.474;5.696;2024-02-21T10:15:21;12.27;;;5.15;;
46731;SDS011;32477;51.474;5.696;2024-02-21T10:17:48;8.75;;;4.60;;
46731;SDS011;32477;51.474;5.696;2024-02-21T10:20:15;15.05;;;5.20;;
46731;SDS011;32477;51.474;5.696;2024-02-21T10:22:41;12.38;;;5.15;;
46731;SDS011;32477;51.474;5.696;2024-02-21T10:25:10;12.13;;;4.90;;
46731;SDS011;32477;51.474;5.696;2024-02-21T10:27:39;10.15;;;4.40;;
46731;SDS011;32477;51.474;5.696;2024-02-21T10:30:06;13.38;;;4.45;;
46731;SDS011;32477;51.474;5.696;2024-02-21T10:32:33;10.13;;;4.70;;
46731;SDS011;32477;51.474;5.696;2024-02-21T10:35:02;10.30;;;4.32;;
46731;SDS011;32477;51.474;5.696;2024-02-21T10:40:00;7.15;;;3.97;;
46731;SDS011;32477;51.474;5.696;2024-02-21T10:42:28;15.77;;;4.25;;
46731;SDS011;32477;51.474;5.696;2024-02-21T10:45:00;16.33;;;4.00;;
46731;SDS011;32477;51.474;5.696;2024-02-21T10:47:29;11.52;;;3.55;;
46731;SDS011;32477;51.474;5.696;2024-02-21T10:49:57;9.88;;;4.13;;
46731;SDS011;32477;51.474;5.696;2024-02-21T10:52:32;10.40;;;3.78;;
46731;SDS011;32477;51.474;5.696;2024-02-21T10:55:11;12.25;;;4.78;;
46731;SDS011;32477;51.474;5.696;2024-02-21T10:57:49;8.15;;;3.50;;
46731;SDS011;32477;51.474;5.696;2024-02-21T11:00:15;10.07;;;4.40;;
46731;SDS011;32477;51.474;5.696;2024-02-21T11:02:44;9.90;;;3.78;;
46731;SDS011;32477;51.474;5.696;2024-02-21T11:05:10;15.00;;;4.03;;
46731;SDS011;32477;51.474;5.696;2024-02-21T11:07:37;8.68;;;3.97;;
46731;SDS011;32477;51.474;5.696;2024-02-21T11:10:03;9.40;;;4.63;;
46731;SDS011;32477;51.474;5.696;2024-02-21T11:12:32;9.15;;;3.80;;
46731;SDS011;32477;51.474;5.696;2024-02-21T11:15:07;7.80;;;3.80;;
46731;SDS011;32477;51.474;5.696;2024-02-21T11:17:33;13.30;;;3.95;;
46731;SDS011;32477;51.474;5.696;2024-02-21T11:20:09;9.10;;;3.85;;
46731;SDS011;32477;51.474;5.696;2024-02-21T11:22:42;11.25;;;3.35;;
46731;SDS011;32477;51.474;5.696;2024-02-21T11:25:08;11.70;;;4.32;;
46731;SDS011;32477;51.474;5.696;2024-02-21T11:27:36;15.82;;;3.90;;
46731;SDS011;32477;51.474;5.696;2024-02-21T11:30:04;12.65;;;3.97;;
46731;SDS011;32477;51.474;5.696;2024-02-21T11:32:30;14.80;;;4.43;;
46731;SDS011;32477;51.474;5.696;2024-02-21T11:37:23;15.23;;;3.70;;
46731;SDS011;32477;51.474;5.696;2024-02-21T11:39:51;10.98;;;3.67;;
46731;SDS011;32477;51.474;5.696;2024-02-21T11:42:18;11.45;;;4.25;;
46731;SDS011;32477;51.474;5.696;2024-02-21T11:44:43;9.10;;;3.92;;
46731;SDS011;32477;51.474;5.696;2024-02-21T11:47:09;8.05;;;3.33;;
46731;SDS011;32477;51.474;5.696;2024-02-21T11:49:36;12.10;;;3.90;;
46731;SDS011;32477;51.474;5.696;2024-02-21T11:52:04;12.93;;;4.15;;
46731;SDS011;32477;51.474;5.696;2024-02-21T11:54:30;10.90;;;3.58;;
46731;SDS011;32477;51.474;5.696;2024-02-21T11:56:56;6.90;;;3.60;;
46731;SDS011;32477;51.474;5.696;2024-02-21T11:59:22;11.07;;;3.38;;
46731;SDS011;32477;51.474;5.696;2024-02-21T12:01:48;7.95;;;3.15;;
46731;SDS011;32477;51.474;5.696;2024-02-21T12:04:15;13.30;;;3.40;;
46731;SDS011;32477;51.474;5.696;2024-02-21T12:06:42;9.25;;;3.70;;
46731;SDS011;32477;51.474;5.696;2024-02-21T12:09:13;10.20;;;3.75;;
46731;SDS011;32477;51.474;5.696;2024-02-21T12:11:40;8.05;;;3.00;;
46731;SDS011;32477;51.474;5.696;2024-02-21T12:14:05;13.52;;;3.85;;
46731;SDS011;32477;51.474;5.696;2024-02-21T12:16:32;11.68;;;3.17;;
46731;SDS011;32477;51.474;5.696;2024-02-21T12:18:58;9.88;;;3.28;;
46731;SDS011;32477;51.474;5.696;2024-02-21T12:21:34;10.20;;;4.25;;
46731;SDS011;32477;51.474;5.696;2024-02-21T12:24:16;7.93;;;3.10;;
46731;SDS011;32477;51.474;5.696;2024-02-21T12:26:42;12.07;;;3.55;;
46731;SDS011;32477;51.474;5.696;2024-02-21T12:29:08;8.73;;;3.28;;
46731;SDS011;32477;51.474;5.696;2024-02-21T12:31:39;13.15;;;3.58;;
46731;SDS011;32477;51.474;5.696;2024-02-21T12:34:05;13.05;;;4.07;;
46731;SDS011;32477;51.474;5.696;2024-02-21T12:36:32;13.77;;;3.85;;
46731;SDS011;32477;51.474;5.696;2024-02-21T12:38:58;8.15;;;3.08;;
46731;SDS011;32477;51.474;5.696;2024-02-21T12:41:25;13.60;;;3.80;;
46731;SDS011;32477;51.474;5.696;2024-02-21T12:43:52;7.95;;;3.38;;
46731;SDS011;32477;51.474;5.696;2024-02-21T12:46:18;13.13;;;4.05;;
46731;SDS011;32477;51.474;5.696;2024-02-21T12:48:43;7.78;;;3.38;;
46731;SDS011;32477;51.474;5.696;2024-02-21T12:51:09;12.00;;;3.70;;
46731;SDS011;32477;51.474;5.696;2024-02-21T12:53:35;14.43;;;3.75;;
46731;SDS011;32477;51.474;5.696;2024-02-21T12:56:01;9.32;;;3.08;;
46731;SDS011;32477;51.474;5.696;2024-02-21T12:58:26;9.75;;;3.90;;
46731;SDS011;32477;51.474;5.696;2024-02-21T13:00:53;10.65;;;3.70;;
46731;SDS011;32477;51.474;5.696;2024-02-21T13:03:19;10.55;;;3.90;;
46731;SDS011;32477;51.474;5.696;2024-02-21T13:05:46;11.88;;;3.35;;
46731;SDS011;32477;51.474;5.696;2024-02-21T13:08:13;7.03;;;3.05;;
46731;SDS011;32477;51.474;5.696;2024-02-21T13:10:38;7.95;;;3.20;;
46731;SDS011;32477;51.474;5.696;2024-02-21T13:13:04;8.13;;;3.33;;
46731;SDS011;32477;51.474;5.696;2024-02-21T13:15:30;17.40;;;3.28;;
46731;SDS011;32477;51.474;5.696;2024-02-21T13:17:56;12.48;;;3.72;;
46731;SDS011;32477;51.474;5.696;2024-02-21T13:20:22;11.50;;;3.55;;
46731;SDS011;32477;51.474;5.696;2024-02-21T13:22:48;8.38;;;2.90;;
46731;SDS011;32477;51.474;5.696;2024-02-21T13:25:14;24.50;;;3.85;;
46731;SDS011;32477;51.474;5.696;2024-02-21T13:27:43;4.57;;;2.10;;
46731;SDS011;32477;51.474;5.696;2024-02-21T13:30:09;8.13;;;2.38;;
46731;SDS011;32477;51.474;5.696;2024-02-21T13:32:35;5.63;;;2.22;;
46731;SDS011;32477;51.474;5.696;2024-02-21T13:35:01;6.50;;;2.53;;
46731;SDS011;32477;51.474;5.696;2024-02-21T13:37:28;6.00;;;2.72;;
46731;SDS011;32477;51.474;5.696;2024-02-21T13:39:53;5.15;;;2.78;;
46731;SDS011;32477;51.474;5.696;2024-02-21T13:42:19;9.63;;;2.78;;
46731;SDS011;32477;51.474;5.696;2024-02-21T13:44:45;11.73;;;3.03;;
46731;SDS011;32477;51.474;5.696;2024-02-21T13:47:14;8.48;;;2.30;;
46731;SDS011;32477;51.474;5.696;2024-02-21T13:49:40;8.57;;;2.63;;
46731;SDS011;32477;51.474;5.696;2024-02-21T13:52:06;9.43;;;2.83;;
46731;SDS011;32477;51.474;5.696;2024-02-21T13:54:32;7.53;;;2.22;;
46731;SDS011;32477;51.474;5.696;2024-02-21T13:56:57;4.82;;;2.50;;
46731;SDS011;32477;51.474;5.696;2024-02-21T13:59:23;8.35;;;3.13;;
46731;SDS011;32477;51.474;5.696;2024-02-21T14:01:49;7.07;;;2.40;;
46731;SDS011;32477;51.474;5.696;2024-02-21T14:04:14;6.95;;;3.00;;
46731;SDS011;32477;51.474;5.696;2024-02-21T14:06:40;6.38;;;2.15;;
46731;SDS011;32477;51.474;5.696;2024-02-21T14:09:11;6.68;;;2.60;;
46731;SDS011;32477;51.474;5.696;2024-02-21T14:11:37;7.05;;;2.47;;
46731;SDS011;32477;51.474;5.696;2024-02-21T14:14:04;5.45;;;2.20;;
46731;SDS011;32477;51.474;5.696;2024-02-21T14:16:30;8.55;;;2.60;;
46731;SDS011;32477;51.474;5.696;2024-02-21T14:18:56;3.80;;;2.38;;
46731;SDS011;32477;51.474;5.696;2024-02-21T14:21:22;5.78;;;2.33;;
46731;SDS011;32477;51.474;5.696;2024-02-21T14:23:48;9.25;;;2.38;;
46731;SDS011;32477;51.474;5.696;2024-02-21T14:26:13;6.80;;;2.53;;
46731;SDS011;32477;51.474;5.696;2024-02-21T14:28:42;8.57;;;2.60;;
46731;SDS011;32477;51.474;5.696;2024-02-21T14:31:07;8.18;;;2.60;;
46731;SDS011;32477;51.474;5.696;2024-02-21T14:33:37;8.52;;;2.40;;
46731;SDS011;32477;51.474;5.696;2024-02-21T14:36:03;6.38;;;2.53;;